Time;durP1;ratioP1;P1;durP2;ratioP2;P2;SDS_P1;SDS_P2;PMS_P1;PMS_P2;Temp;Humidity;BMP_temperature;BMP_pressure;BME280_temperature;BME280_humidity;BME280_pressure;Samples;Min_cycle;Max_cycle;Signal;HPM_P1;HPM_P2
2022/10/13 00:00:38;;;;;;;14.23;10.47;;;13.00;91.00;;;;;;5075737;28;20462;-72
2022/10/13 00:03:06;;;;;;;15.13;9.70;;;13.00;91.00;;;;;;5075648;28;20448;-72
2022/10/13 00:05:33;;;;;;;13.63;8.80;;;13.00;91.00;;;;;;5075875;28;20458;-72
2022/10/13 00:08:00;;;;;;;12.20;8.67;;;13.00;91.10;;;;;;5075473;28;20442;-71
2022/10/13 00:10:27;;;;;;;12.07;10.60;;;13.00;91.20;;;;;;5075709;28;20473;-71
2022/10/13 00:12:54;;;;;;;12.13;9.40;;;13.00;91.10;;;;;;5075833;28;20449;-72
2022/10/13 00:15:21;;;;;;;14.97;9.60;;;13.00;91.10;;;;;;5075357;28;20445;-72
2022/10/13 00:17:48;;;;;;;14.13;10.17;;;13.00;91.10;;;;;;5075680;28;20781;-72
2022/10/13 00:20:16;;;;;;;10.43;8.93;;;13.00;91.00;;;;;;5075446;28;20487;-72
2022/10/13 00:22:43;;;;;;;12.53;9.60;;;13.00;90.90;;;;;;5075216;28;20447;-72
2022/10/13 00:25:09;;;;;;;10.93;9.50;;;13.00;91.20;;;;;;5076348;28;20535;-72
2022/10/13 00:27:36;;;;;;;9.13;8.00;;;13.00;91.10;;;;;;5075071;28;20455;-72
2022/10/13 00:30:03;;;;;;;12.73;9.80;;;13.00;91.10;;;;;;5081529;28;20471;-72
2022/10/13 00:32:30;;;;;;;18.90;10.30;;;13.00;91.30;;;;;;5085545;28;20459;-71
2022/10/13 00:34:57;;;;;;;14.30;9.33;;;13.00;91.40;;;;;;5086295;28;20456;-71
2022/10/13 00:37:25;;;;;;;14.03;10.40;;;13.00;91.50;;;;;;5084994;28;20449;-71
2022/10/13 00:39:52;;;;;;;17.00;9.33;;;12.90;91.50;;;;;;5085501;28;20496;-71
2022/10/13 00:42:19;;;;;;;13.80;9.47;;;12.90;91.60;;;;;;5085611;28;20474;-71
2022/10/13 00:45:04;;;;;;;14.23;9.30;;;12.90;91.90;;;;;;5085608;28;20457;-71
2022/10/13 00:47:35;;;;;;;14.70;8.97;;;12.90;91.90;;;;;;5083862;28;20482;-71
2022/10/13 00:50:03;;;;;;;10.90;8.70;;;12.80;92.00;;;;;;5085957;28;20467;-71
2022/10/13 00:52:32;;;;;;;15.80;10.10;;;12.90;92.10;;;;;;5085430;28;20457;-71
2022/10/13 00:55:02;;;;;;;19.27;10.70;;;12.80;92.10;;;;;;5084734;28;20444;-71
2022/10/13 00:57:29;;;;;;;13.50;9.23;;;12.80;92.20;;;;;;5085570;28;20946;-71
2022/10/13 00:59:56;;;;;;;13.33;9.53;;;12.80;92.40;;;;;;5085564;28;20495;-71
2022/10/13 01:02:27;;;;;;;12.90;9.80;;;12.80;92.50;;;;;;5085746;28;20445;-71
2022/10/13 01:04:55;;;;;;;14.97;10.00;;;12.80;92.50;;;;;;5085599;28;20440;-71
2022/10/13 01:07:22;;;;;;;16.33;9.90;;;12.80;92.50;;;;;;5086215;28;20454;-71
2022/10/13 01:09:50;;;;;;;14.60;9.77;;;12.70;92.60;;;;;;5084767;28;20533;-72
2022/10/13 01:12:29;;;;;;;14.60;10.13;;;12.80;92.80;;;;;;5084775;28;20444;-72
2022/10/13 01:15:07;;;;;;;13.53;9.73;;;12.80;92.80;;;;;;5084838;28;20431;-71
2022/10/13 01:17:43;;;;;;;11.17;9.70;;;12.80;92.80;;;;;;5085712;28;20486;-71
2022/10/13 01:20:34;;;;;;;13.23;9.57;;;12.80;92.80;;;;;;5084606;28;20556;-71
2022/10/13 01:23:22;;;;;;;21.00;9.63;;;12.70;92.80;;;;;;5082624;28;20483;-71
2022/10/13 01:26:12;;;;;;;15.07;9.57;;;12.80;92.90;;;;;;5086166;28;20456;-71
2022/10/13 01:29:03;;;;;;;16.13;9.30;;;12.70;92.90;;;;;;5087137;28;20827;-71
2022/10/13 01:31:38;;;;;;;19.87;10.63;;;12.70;92.90;;;;;;5087068;28;20445;-71
2022/10/13 01:34:13;;;;;;;16.60;11.10;;;12.80;93.10;;;;;;5085380;28;20440;-71
2022/10/13 01:36:46;;;;;;;21.63;12.27;;;12.80;93.30;;;;;;5087134;28;20430;-71
2022/10/13 01:39:22;;;;;;;17.33;10.40;;;12.80;93.30;;;;;;5086844;28;20494;-71
2022/10/13 01:41:53;;;;;;;13.53;9.50;;;12.80;93.20;;;;;;5087616;28;20456;-71
2022/10/13 01:44:25;;;;;;;19.17;10.00;;;12.80;93.20;;;;;;5086988;28;20430;-71
2022/10/13 01:46:54;;;;;;;13.33;10.20;;;12.80;93.20;;;;;;5087886;28;20440;-71
2022/10/13 01:49:26;;;;;;;20.20;11.17;;;12.80;93.20;;;;;;5087862;28;20473;-71
2022/10/13 01:51:54;;;;;;;23.30;11.57;;;12.80;93.30;;;;;;5088271;28;20844;-71
2022/10/13 01:54:21;;;;;;;16.30;11.07;;;12.80;93.40;;;;;;5088098;28;20461;-71
2022/10/13 01:56:52;;;;;;;14.37;9.80;;;12.90;93.40;;;;;;5087541;28;20462;-71
2022/10/13 01:59:20;;;;;;;13.87;10.57;;;12.80;93.30;;;;;;5087359;28;20559;-71
2022/10/13 02:02:00;;;;;;;15.23;8.90;;;12.90;93.30;;;;;;5087666;28;20445;-71
2022/10/13 02:04:37;;;;;;;13.70;10.93;;;12.90;93.00;;;;;;5087456;28;20453;-71
2022/10/13 02:07:15;;;;;;;13.87;10.67;;;12.90;93.10;;;;;;5090909;28;20442;-71
2022/10/13 02:09:50;;;;;;;20.83;9.97;;;12.90;93.20;;;;;;5092976;28;20483;-71
2022/10/13 02:12:24;;;;;;;14.70;10.87;;;12.90;93.20;;;;;;5095224;28;20434;-71
2022/10/13 02:14:53;;;;;;;15.20;10.63;;;12.90;93.20;;;;;;5085000;28;20432;-71
2022/10/13 02:17:21;;;;;;;15.63;10.43;;;12.90;93.20;;;;;;5087480;28;20823;-71
2022/10/13 02:19:48;;;;;;;15.37;10.43;;;12.90;93.30;;;;;;5090468;28;20490;-71
2022/10/13 02:22:17;;;;;;;14.70;9.53;;;12.90;93.40;;;;;;5091761;28;20482;-71
2022/10/13 02:24:44;;;;;;;14.27;9.90;;;12.90;93.30;;;;;;5092789;28;20463;-71
2022/10/13 02:27:11;;;;;;;13.43;10.07;;;12.90;93.30;;;;;;5092484;28;20443;-71
2022/10/13 02:29:49;;;;;;;14.30;9.00;;;12.90;93.30;;;;;;5091551;28;20971;-71
2022/10/13 02:32:16;;;;;;;12.70;9.90;;;12.90;93.20;;;;;;5092827;28;20439;-71
2022/10/13 02:34:44;;;;;;;19.03;11.47;;;12.80;93.20;;;;;;5092201;28;20444;-71
2022/10/13 02:37:11;;;;;;;14.83;10.00;;;12.80;93.30;;;;;;5091860;28;20444;-71
2022/10/13 02:39:38;;;;;;;12.47;10.03;;;12.80;93.40;;;;;;5091992;28;20492;-71
2022/10/13 02:42:04;;;;;;;10.37;9.30;;;12.90;93.40;;;;;;5092352;28;20468;-71
2022/10/13 02:44:31;;;;;;;12.20;8.80;;;12.90;93.30;;;;;;5092219;28;20454;-71
2022/10/13 02:46:58;;;;;;;11.43;9.73;;;12.90;93.20;;;;;;5093197;28;20461;-71
2022/10/13 02:49:25;;;;;;;14.70;9.40;;;12.90;93.20;;;;;;5092480;28;20466;-71
2022/10/13 02:51:53;;;;;;;11.47;8.57;;;13.00;93.20;;;;;;5092491;28;20458;-71
2022/10/13 02:54:20;;;;;;;14.47;9.40;;;13.00;93.20;;;;;;5092804;28;20484;-71
2022/10/13 02:56:46;;;;;;;14.90;10.07;;;13.00;93.20;;;;;;5092683;28;20446;-71
2022/10/13 02:59:14;;;;;;;14.80;9.10;;;13.00;93.50;;;;;;5092672;28;20464;-71
2022/10/13 03:01:41;;;;;;;10.87;8.60;;;13.00;93.60;;;;;;5092599;28;20922;-71
2022/10/13 03:04:08;;;;;;;9.37;8.47;;;13.00;93.50;;;;;;5092783;28;20456;-71
2022/10/13 03:06:34;;;;;;;16.43;10.00;;;13.00;93.40;;;;;;5092369;28;20455;-71
2022/10/13 03:09:03;;;;;;;10.80;8.60;;;13.00;93.60;;;;;;5093236;28;20450;-71
2022/10/13 03:11:30;;;;;;;10.70;9.57;;;13.00;93.60;;;;;;5095025;28;20451;-71
2022/10/13 03:13:57;;;;;;;11.30;10.13;;;13.00;93.70;;;;;;5093775;28;20916;-71
2022/10/13 03:16:23;;;;;;;10.80;9.60;;;13.00;93.70;;;;;;5094752;28;20455;-71
2022/10/13 03:18:50;;;;;;;10.87;9.40;;;13.10;93.60;;;;;;5092613;28;20473;-71
2022/10/13 03:21:17;;;;;;;9.93;8.40;;;13.10;93.70;;;;;;5092796;28;20487;-71
2022/10/13 03:23:44;;;;;;;11.83;9.50;;;13.10;93.80;;;;;;5093779;28;20450;-71
2022/10/13 03:26:12;;;;;;;12.43;9.70;;;13.10;93.70;;;;;;5094306;28;20458;-71
2022/10/13 03:28:38;;;;;;;11.23;9.60;;;13.10;93.70;;;;;;5093398;28;20413;-71
2022/10/13 03:31:07;;;;;;;11.60;9.53;;;13.10;93.60;;;;;;5093282;28;20463;-71
2022/10/13 03:33:34;;;;;;;16.50;10.90;;;13.00;93.60;;;;;;5092354;28;20441;-71
2022/10/13 03:36:02;;;;;;;16.20;9.33;;;13.10;93.70;;;;;;5093593;28;20477;-71
2022/10/13 03:38:30;;;;;;;13.00;10.23;;;13.10;93.70;;;;;;5092747;28;20435;-71
2022/10/13 03:40:57;;;;;;;24.27;8.57;;;13.10;93.60;;;;;;5091312;28;20479;-71
2022/10/13 03:43:25;;;;;;;16.40;8.97;;;13.00;93.60;;;;;;5091100;28;20448;-71
2022/10/13 03:45:56;;;;;;;16.43;9.50;;;13.00;93.70;;;;;;5090930;28;20455;-71
2022/10/13 03:48:23;;;;;;;17.00;9.13;;;13.00;93.50;;;;;;5091512;28;20458;-71
2022/10/13 03:50:50;;;;;;;14.20;9.10;;;13.00;93.70;;;;;;5090330;28;20842;-71
2022/10/13 03:53:17;;;;;;;15.07;8.57;;;13.00;93.70;;;;;;5092066;28;20454;-71
2022/10/13 03:55:49;;;;;;;11.87;8.93;;;13.00;93.70;;;;;;5092706;28;20559;-71
2022/10/13 03:58:16;;;;;;;13.60;10.00;;;13.00;93.60;;;;;;5091126;28;20546;-71
2022/10/13 04:00:44;;;;;;;13.30;10.00;;;12.90;93.60;;;;;;5090917;28;20490;-71
2022/10/13 04:03:11;;;;;;;15.07;9.53;;;12.90;93.70;;;;;;5090383;28;20457;-71
2022/10/13 04:05:37;;;;;;;17.00;9.30;;;13.00;93.70;;;;;;5091106;28;20525;-70
2022/10/13 04:08:04;;;;;;;14.57;9.30;;;13.00;93.70;;;;;;5090893;28;20511;-70
2022/10/13 04:10:31;;;;;;;14.80;10.13;;;13.00;93.70;;;;;;5090435;28;20492;-70
2022/10/13 04:12:58;;;;;;;9.77;8.77;;;12.90;93.50;;;;;;5090501;28;21004;-71
2022/10/13 04:15:25;;;;;;;11.67;8.80;;;13.00;93.50;;;;;;5090352;28;20451;-71
2022/10/13 04:17:53;;;;;;;10.73;9.27;;;12.90;93.50;;;;;;5091263;28;20432;-71
2022/10/13 04:20:20;;;;;;;10.30;8.53;;;12.90;93.20;;;;;;5090326;28;20480;-71
2022/10/13 04:22:47;;;;;;;15.33;10.20;;;12.80;93.30;;;;;;5085966;28;20450;-73
2022/10/13 04:25:13;;;;;;;11.57;10.37;;;12.90;93.50;;;;;;5076094;28;20784;-73
2022/10/13 04:27:40;;;;;;;16.30;10.23;;;12.90;93.60;;;;;;5077177;28;20451;-72
2022/10/13 04:30:08;;;;;;;16.00;9.27;;;12.90;93.80;;;;;;5077515;28;20479;-72
2022/10/13 04:32:35;;;;;;;10.80;8.83;;;12.80;93.80;;;;;;5079362;28;20910;-72
2022/10/13 04:35:04;;;;;;;12.87;8.30;;;12.80;93.70;;;;;;5077612;28;20948;-73
2022/10/13 04:37:30;;;;;;;11.97;8.97;;;12.80;93.60;;;;;;5078334;28;20475;-73
2022/10/13 04:39:57;;;;;;;14.33;9.40;;;12.90;93.70;;;;;;5077932;28;20511;-73
2022/10/13 04:42:24;;;;;;;11.77;9.00;;;12.90;93.70;;;;;;5077587;28;20870;-72
2022/10/13 04:44:51;;;;;;;12.10;10.20;;;12.90;93.70;;;;;;5079055;28;20452;-72
2022/10/13 04:47:17;;;;;;;15.80;9.87;;;12.90;93.70;;;;;;5077653;28;20454;-72
2022/10/13 04:49:44;;;;;;;15.30;10.40;;;12.90;94.00;;;;;;5076646;28;20880;-72
2022/10/13 04:52:12;;;;;;;11.63;8.57;;;12.90;93.90;;;;;;5075050;28;20452;-72
2022/10/13 04:54:41;;;;;;;10.57;9.10;;;12.90;93.90;;;;;;5074513;28;20444;-73
2022/10/13 04:57:07;;;;;;;9.97;8.47;;;12.90;93.90;;;;;;5074854;28;20458;-73
2022/10/13 04:59:34;;;;;;;14.63;9.57;;;13.00;94.00;;;;;;5077107;28;20477;-73
2022/10/13 05:02:02;;;;;;;15.60;9.87;;;13.00;93.90;;;;;;5075572;28;20494;-72
2022/10/13 05:04:28;;;;;;;11.53;8.80;;;13.00;93.90;;;;;;5074399;28;20459;-73
2022/10/13 05:06:55;;;;;;;11.00;8.93;;;13.00;93.80;;;;;;5076062;28;20451;-73
2022/10/13 05:09:23;;;;;;;12.10;9.23;;;13.00;93.80;;;;;;5075425;28;20464;-73
2022/10/13 05:11:50;;;;;;;18.27;9.00;;;13.00;93.70;;;;;;5074627;28;20444;-73
2022/10/13 05:14:17;;;;;;;14.07;8.70;;;13.00;93.70;;;;;;5076314;28;20460;-73
2022/10/13 05:16:44;;;;;;;12.73;9.30;;;13.00;93.70;;;;;;5083544;28;20452;-71
2022/10/13 05:19:10;;;;;;;11.73;9.07;;;13.00;93.60;;;;;;5089227;28;20479;-71
2022/10/13 05:21:37;;;;;;;16.83;9.47;;;13.10;93.60;;;;;;5086370;28;20470;-72
2022/10/13 05:24:05;;;;;;;14.43;9.70;;;13.10;93.50;;;;;;5075882;28;20468;-72
2022/10/13 05:26:36;;;;;;;10.73;8.60;;;13.10;93.50;;;;;;5079321;28;20452;-71
2022/10/13 05:29:02;;;;;;;10.13;9.13;;;13.10;93.50;;;;;;5082613;28;20897;-71
2022/10/13 05:31:31;;;;;;;14.83;9.43;;;13.10;93.40;;;;;;5076653;28;20464;-71
2022/10/13 05:33:57;;;;;;;14.07;9.10;;;13.10;93.40;;;;;;5076228;28;20440;-71
2022/10/13 05:36:28;;;;;;;14.67;9.27;;;13.10;93.40;;;;;;5075820;28;20826;-71
2022/10/13 05:38:56;;;;;;;17.47;8.83;;;13.10;93.20;;;;;;5075255;28;20478;-72
2022/10/13 05:41:24;;;;;;;14.03;8.20;;;13.10;93.30;;;;;;5074355;28;20495;-72
2022/10/13 05:43:56;;;;;;;12.13;8.13;;;13.10;93.40;;;;;;5074815;28;20860;-72
2022/10/13 05:46:22;;;;;;;11.20;8.60;;;13.10;93.50;;;;;;5074804;28;20563;-72
2022/10/13 05:48:49;;;;;;;15.10;9.00;;;13.00;93.40;;;;;;5075829;28;20479;-72
2022/10/13 05:51:20;;;;;;;15.63;8.63;;;13.00;93.70;;;;;;5079174;28;20446;-72
2022/10/13 05:53:52;;;;;;;11.50;8.73;;;13.00;93.70;;;;;;5076412;28;20445;-72
2022/10/13 05:56:22;;;;;;;11.73;8.67;;;13.00;93.90;;;;;;5077338;28;20436;-72
2022/10/13 05:58:54;;;;;;;20.57;9.13;;;13.00;93.90;;;;;;5077994;28;20431;-72
2022/10/13 06:01:23;;;;;;;17.57;9.90;;;13.00;93.90;;;;;;5089421;28;20471;-70
2022/10/13 06:03:53;;;;;;;18.37;9.30;;;13.00;93.90;;;;;;5092813;28;20452;-70
2022/10/13 06:06:20;;;;;;;14.40;9.30;;;13.00;93.80;;;;;;5092090;28;20452;-70
2022/10/13 06:08:46;;;;;;;13.30;9.40;;;13.00;93.70;;;;;;5092838;28;20451;-70
2022/10/13 06:11:13;;;;;;;20.30;11.00;;;13.00;93.80;;;;;;5092867;28;20447;-70
2022/10/13 06:13:40;;;;;;;23.57;10.37;;;13.00;93.70;;;;;;5092562;28;20458;-71
2022/10/13 06:16:08;;;;;;;23.43;10.80;;;13.10;93.80;;;;;;5092160;28;20448;-71
2022/10/13 06:18:35;;;;;;;19.87;9.07;;;13.10;93.80;;;;;;5092386;28;20456;-71
2022/10/13 06:21:02;;;;;;;24.97;10.07;;;13.10;93.80;;;;;;5092833;28;20475;-71
2022/10/13 06:23:28;;;;;;;21.27;9.83;;;13.10;93.70;;;;;;5092558;28;20459;-71
2022/10/13 06:25:55;;;;;;;14.17;8.83;;;13.10;93.70;;;;;;5092750;28;20448;-71
2022/10/13 06:28:22;;;;;;;15.90;9.20;;;13.10;93.70;;;;;;5092661;28;20949;-71
2022/10/13 06:30:55;;;;;;;16.67;9.03;;;13.10;93.60;;;;;;5092064;28;20463;-71
2022/10/13 06:33:23;;;;;;;20.70;9.70;;;13.10;93.60;;;;;;5092393;28;20444;-71
2022/10/13 06:35:50;;;;;;;14.10;8.90;;;13.10;93.50;;;;;;5091614;28;20448;-71
2022/10/13 06:38:17;;;;;;;15.43;10.43;;;13.10;93.60;;;;;;5092407;28;20451;-71
2022/10/13 06:40:44;;;;;;;15.67;10.10;;;13.20;93.70;;;;;;5092196;28;20522;-71
2022/10/13 06:43:11;;;;;;;19.97;10.70;;;13.20;93.70;;;;;;5092370;28;20826;-71
2022/10/13 06:45:37;;;;;;;18.57;10.73;;;13.20;93.70;;;;;;5091593;28;20427;-71
2022/10/13 06:48:04;;;;;;;17.73;8.87;;;13.20;93.60;;;;;;5091524;28;20504;-71
2022/10/13 06:50:33;;;;;;;18.93;9.37;;;13.30;93.70;;;;;;5092662;28;20474;-71
2022/10/13 06:52:59;;;;;;;11.70;9.20;;;13.30;93.60;;;;;;5094732;28;20444;-71
2022/10/13 06:55:26;;;;;;;16.67;9.60;;;13.40;93.60;;;;;;5098337;28;20425;-70
2022/10/13 06:57:53;;;;;;;20.50;9.80;;;13.40;93.60;;;;;;5097194;28;20451;-71
2022/10/13 07:00:20;;;;;;;14.83;10.07;;;13.40;93.40;;;;;;5097202;28;20857;-71
2022/10/13 07:02:50;;;;;;;13.53;9.20;;;13.50;93.40;;;;;;5097017;28;20453;-70
2022/10/13 07:05:17;;;;;;;17.40;10.43;;;13.50;93.40;;;;;;5095801;28;20436;-71
2022/10/13 07:07:45;;;;;;;15.10;9.97;;;13.60;93.50;;;;;;5085460;28;20455;-71
2022/10/13 07:10:12;;;;;;;14.23;9.40;;;13.60;93.50;;;;;;5092838;28;20474;-72
2022/10/13 07:12:39;;;;;;;13.63;9.50;;;13.60;93.50;;;;;;5103176;28;20457;-71
2022/10/13 07:15:07;;;;;;;15.20;10.27;;;13.70;93.50;;;;;;5099862;28;20566;-71
2022/10/13 07:17:34;;;;;;;12.53;8.70;;;13.70;93.30;;;;;;5101607;28;20466;-71
2022/10/13 07:20:02;;;;;;;11.77;9.27;;;13.70;93.20;;;;;;5107440;28;20462;-72
2022/10/13 07:22:29;;;;;;;17.67;10.17;;;13.80;93.00;;;;;;5094770;28;20509;-71
2022/10/13 07:24:58;;;;;;;12.37;8.13;;;13.80;93.10;;;;;;5089252;28;20443;-72
2022/10/13 07:27:25;;;;;;;20.80;10.03;;;13.90;93.10;;;;;;5089307;28;20440;-71
2022/10/13 07:29:52;;;;;;;14.30;9.97;;;13.90;93.10;;;;;;5089613;28;20475;-71
2022/10/13 07:32:19;;;;;;;12.33;9.00;;;14.00;93.10;;;;;;5086939;28;20463;-72
2022/10/13 07:34:45;;;;;;;12.03;8.73;;;14.10;92.90;;;;;;5093274;28;20538;-71
2022/10/13 07:37:13;;;;;;;19.10;9.20;;;14.20;92.80;;;;;;5096257;28;20424;-71
2022/10/13 07:39:39;;;;;;;13.30;9.27;;;14.30;92.50;;;;;;5109689;28;20479;-71
2022/10/13 07:42:07;;;;;;;12.93;9.43;;;14.40;92.60;;;;;;5114822;28;20486;-72
2022/10/13 07:44:34;;;;;;;19.07;8.93;;;14.50;92.90;;;;;;5095907;28;20457;-71
2022/10/13 07:47:01;;;;;;;12.00;8.93;;;14.60;92.20;;;;;;5096378;28;20466;-71
2022/10/13 07:49:27;;;;;;;15.10;8.87;;;14.60;92.10;;;;;;5095030;28;20469;-71
2022/10/13 07:51:54;;;;;;;12.40;9.00;;;14.70;92.10;;;;;;5105680;28;20452;-72
2022/10/13 07:54:21;;;;;;;12.90;9.07;;;14.70;91.90;;;;;;5105820;28;20430;-72
2022/10/13 07:56:51;;;;;;;15.70;9.20;;;14.70;91.70;;;;;;5085077;28;20463;-72
2022/10/13 07:59:19;;;;;;;12.97;8.67;;;14.80;91.80;;;;;;5078815;28;20827;-72
2022/10/13 08:01:46;;;;;;;16.93;8.77;;;14.80;92.00;;;;;;5098032;28;20500;-70
2022/10/13 08:04:12;;;;;;;11.43;8.40;;;14.80;92.00;;;;;;5098552;28;20494;-71
2022/10/13 08:06:40;;;;;;;10.10;7.87;;;14.90;92.00;;;;;;5108435;28;20498;-71
2022/10/13 08:09:07;;;;;;;16.57;8.53;;;14.90;92.00;;;;;;5110070;28;20487;-71
2022/10/13 08:11:36;;;;;;;13.37;8.50;;;14.90;92.10;;;;;;5107613;28;20467;-71
2022/10/13 08:14:03;;;;;;;10.37;8.70;;;14.90;92.20;;;;;;5104288;28;20459;-70
2022/10/13 08:16:32;;;;;;;24.63;10.10;;;15.00;92.10;;;;;;5089318;28;20456;-70
2022/10/13 08:19:00;;;;;;;23.30;9.90;;;15.00;92.00;;;;;;5085078;28;20466;-70
2022/10/13 08:21:28;;;;;;;12.97;7.83;;;15.00;91.80;;;;;;5089449;28;20488;-71
2022/10/13 08:23:55;;;;;;;10.90;8.67;;;15.10;91.80;;;;;;5090246;28;20472;-71
2022/10/13 08:26:24;;;;;;;13.43;8.33;;;15.10;91.60;;;;;;5098260;28;20471;-70
2022/10/13 08:28:51;;;;;;;15.27;8.87;;;15.20;91.50;;;;;;5095429;28;20468;-70
2022/10/13 08:31:18;;;;;;;17.60;9.40;;;15.30;91.30;;;;;;5099095;28;20466;-70
2022/10/13 08:33:47;;;;;;;11.57;8.90;;;15.40;91.20;;;;;;5097750;28;20472;-70
2022/10/13 08:36:14;;;;;;;15.23;8.60;;;15.40;91.40;;;;;;5089391;28;20468;-70
2022/10/13 08:38:41;;;;;;;16.60;9.43;;;15.50;90.90;;;;;;5093721;28;20463;-70
2022/10/13 08:41:16;;;;;;;15.37;8.93;;;15.50;90.70;;;;;;5085347;28;21251;-71
2022/10/13 08:43:47;;;;;;;15.37;9.60;;;15.60;90.70;;;;;;5088535;28;20828;-70
2022/10/13 08:46:20;;;;;;;14.50;9.10;;;15.70;90.50;;;;;;5100604;28;20454;-70
2022/10/13 08:48:48;;;;;;;15.70;8.80;;;15.70;90.30;;;;;;5106870;28;20460;-70
2022/10/13 08:51:16;;;;;;;14.20;8.67;;;15.70;90.30;;;;;;5092359;28;20463;-71
2022/10/13 08:53:46;;;;;;;10.50;8.70;;;15.90;90.10;;;;;;5097090;28;20477;-70
2022/10/13 08:56:18;;;;;;;9.80;8.80;;;16.00;89.50;;;;;;5091744;28;20461;-72
2022/10/13 08:58:46;;;;;;;11.00;9.23;;;16.20;88.50;;;;;;5086602;28;20471;-70
2022/10/13 09:01:17;;;;;;;9.53;6.90;;;16.30;87.80;;;;;;5083370;28;20464;-70
2022/10/13 09:03:54;;;;;;;12.43;8.40;;;16.40;87.50;;;;;;5087944;28;20471;-72
2022/10/13 09:06:27;;;;;;;9.60;7.57;;;16.50;87.40;;;;;;5087574;28;20461;-70
2022/10/13 09:08:57;;;;;;;9.77;7.90;;;16.70;87.00;;;;;;5092973;28;20495;-70
2022/10/13 09:11:27;;;;;;;16.67;8.43;;;16.90;86.20;;;;;;5081351;28;20461;-71
2022/10/13 09:13:58;;;;;;;9.90;7.90;;;17.10;85.30;;;;;;5082585;28;20457;-71
2022/10/13 09:16:30;;;;;;;13.37;8.33;;;17.30;84.10;;;;;;5083703;28;20461;-70
2022/10/13 09:19:14;;;;;;;12.60;7.57;;;17.50;83.20;;;;;;5079181;28;20815;-73
2022/10/13 09:21:40;;;;;;;14.07;8.30;;;17.80;82.40;;;;;;5071823;28;20871;-73
2022/10/13 09:24:12;;;;;;;11.00;8.83;;;17.90;81.30;;;;;;5084448;28;20473;-72
2022/10/13 09:26:39;;;;;;;13.93;8.83;;;18.20;80.80;;;;;;5073818;28;20488;-73
2022/10/13 09:29:09;;;;;;;11.33;7.77;;;18.40;80.20;;;;;;5078274;28;20855;-72
2022/10/13 09:31:37;;;;;;;9.73;7.73;;;18.60;79.50;;;;;;5085070;28;20456;-73
2022/10/13 09:34:14;;;;;;;10.40;8.43;;;18.80;78.90;;;;;;5076178;28;20501;-73
2022/10/13 09:36:56;;;;;;;12.83;7.63;;;19.10;77.40;;;;;;5077600;28;20464;-72
2022/10/13 09:39:23;;;;;;;8.90;6.80;;;19.20;76.10;;;;;;5075232;28;20476;-73
2022/10/13 09:41:50;;;;;;;11.27;7.57;;;19.30;73.80;;;;;;5072410;28;20603;-75
2022/10/13 09:44:19;;;;;;;15.90;8.50;;;19.30;73.70;;;;;;5074244;28;20830;-73
2022/10/13 09:46:51;;;;;;;15.00;8.00;;;19.20;73.00;;;;;;5084136;28;20453;-73
2022/10/13 09:49:41;;;;;;;10.40;7.67;;;19.10;72.80;;;;;;5074383;28;20483;-73
2022/10/13 09:52:16;;;;;;;11.33;7.70;;;19.00;74.00;;;;;;5068480;28;20461;-74
2022/10/13 09:54:46;;;;;;;11.40;8.50;;;18.90;74.70;;;;;;5073716;28;20518;-73
2022/10/13 09:57:21;;;;;;;12.30;6.73;;;18.90;74.90;;;;;;5074418;28;20971;-73
2022/10/13 09:59:50;;;;;;;8.60;6.77;;;18.90;76.40;;;;;;5085213;28;20594;-73
2022/10/13 10:02:32;;;;;;;8.10;6.20;;;18.80;76.40;;;;;;5075323;28;20493;-73
2022/10/13 10:05:07;;;;;;;15.00;7.27;;;18.80;75.80;;;;;;5084064;28;20445;-73
2022/10/13 10:07:34;;;;;;;8.57;6.57;;;18.90;76.00;;;;;;5076056;28;20463;-73
2022/10/13 10:10:04;;;;;;;10.63;6.73;;;18.90;75.00;;;;;;5089537;28;20480;-74
2022/10/13 10:12:36;;;;;;;11.43;6.27;;;18.90;74.30;;;;;;5075751;28;20952;-73
2022/10/13 10:15:09;;;;;;;12.67;6.00;;;19.00;74.20;;;;;;5073247;28;20465;-73
2022/10/13 10:17:43;;;;;;;9.67;7.10;;;19.10;74.10;;;;;;5075786;28;20457;-73
2022/10/13 10:20:33;;;;;;;10.13;6.30;;;19.20;73.40;;;;;;5073527;28;20566;-73
2022/10/13 10:23:07;;;;;;;10.93;6.63;;;19.30;71.60;;;;;;5073043;28;20489;-73
2022/10/13 10:25:40;;;;;;;8.33;6.50;;;19.40;70.40;;;;;;5076732;28;20461;-73
2022/10/13 10:28:22;;;;;;;9.73;5.97;;;19.50;70.10;;;;;;5079983;28;20462;-74
2022/10/13 10:30:57;;;;;;;10.13;6.50;;;19.60;69.40;;;;;;5090719;28;20539;-73
2022/10/13 10:33:35;;;;;;;10.63;5.40;;;19.60;68.60;;;;;;5089382;28;20821;-74
2022/10/13 10:36:15;;;;;;;11.00;5.03;;;19.70;68.60;;;;;;5084444;28;20847;-74
2022/10/13 10:38:47;;;;;;;14.93;5.40;;;19.70;67.80;;;;;;5079251;28;20463;-74
2022/10/13 10:41:26;;;;;;;8.53;4.90;;;19.80;67.50;;;;;;5089356;28;20464;-73
2022/10/13 10:43:57;;;;;;;10.20;4.53;;;19.80;67.70;;;;;;5075102;28;20475;-73
2022/10/13 10:46:28;;;;;;;8.77;4.60;;;19.90;67.70;;;;;;5078591;28;20464;-73
2022/10/13 10:48:59;;;;;;;8.57;5.17;;;19.90;67.70;;;;;;5076434;28;20465;-73
2022/10/13 10:51:31;;;;;;;5.93;4.77;;;19.90;67.60;;;;;;5079064;28;20460;-73
2022/10/13 10:54:08;;;;;;;6.70;5.30;;;19.80;67.90;;;;;;5077021;28;20433;-73
2022/10/13 10:56:38;;;;;;;7.63;4.90;;;19.80;68.40;;;;;;5077013;28;20885;-73
2022/10/13 10:59:18;;;;;;;5.70;5.03;;;19.70;68.80;;;;;;5076692;28;21808;-73
2022/10/13 11:01:52;;;;;;;5.90;4.43;;;19.70;68.40;;;;;;5076690;28;20437;-72
2022/10/13 11:04:39;;;;;;;6.27;4.50;;;19.60;68.60;;;;;;5076735;28;20432;-73
2022/10/13 11:07:13;;;;;;;7.90;4.17;;;19.60;68.40;;;;;;5076288;28;20465;-73
2022/10/13 11:10:17;;;;;;;8.50;3.93;;;19.50;68.50;;;;;;5076351;28;20972;-72
2022/10/13 11:13:03;;;;;;;6.63;4.67;;;19.30;69.70;;;;;;5045040;28;20456;-72
2022/10/13 11:15:41;;;;;;;10.40;4.40;;;19.20;69.80;;;;;;5076414;28;20435;-72
2022/10/13 11:18:41;;;;;;;10.23;5.10;;;19.00;71.10;;;;;;5076382;28;20468;-72
2022/10/13 11:21:08;;;;;;;9.13;4.73;;;18.80;71.90;;;;;;5075811;28;20469;-72
2022/10/13 11:23:44;;;;;;;9.20;5.27;;;18.50;73.30;;;;;;5076326;28;20488;-72
2022/10/13 11:26:30;;;;;;;7.53;5.40;;;18.40;75.70;;;;;;5076152;28;20916;-71
2022/10/13 11:28:57;;;;;;;7.47;5.80;;;18.20;76.80;;;;;;5076011;28;20436;-69
2022/10/13 11:31:27;;;;;;;9.33;5.20;;;18.10;78.10;;;;;;5076094;28;20982;-74
2022/10/13 11:33:57;;;;;;;17.23;6.40;;;18.00;79.10;;;;;;5076328;28;20437;-72
2022/10/13 11:36:46;;;;;;;9.90;6.90;;;17.90;80.80;;;;;;5075789;28;20940;-71
2022/10/13 11:42:19;;;;;;;11.80;7.40;;;17.90;82.10;;;;;;5112393;27;20505;-71
2022/10/13 11:44:53;;;;;;;10.27;6.60;;;17.70;84.30;;;;;;5118042;28;20451;-73
2022/10/13 11:47:42;;;;;;;11.40;6.53;;;17.70;85.60;;;;;;5127447;28;20432;-71
2022/10/13 11:50:20;;;;;;;14.40;7.57;;;17.70;86.00;;;;;;5116509;28;20455;-73
2022/10/13 11:53:06;;;;;;;10.03;6.37;;;17.70;86.90;;;;;;5113900;28;20442;-72
2022/10/13 11:55:43;;;;;;;10.93;7.33;;;17.70;87.40;;;;;;5114755;28;20427;-70
2022/10/13 11:58:16;;;;;;;8.93;7.03;;;17.70;88.00;;;;;;5114490;28;20455;-69
2022/10/13 12:00:57;;;;;;;9.07;7.30;;;17.80;88.50;;;;;;5115686;28;20479;-68
2022/10/13 12:03:27;;;;;;;10.43;7.10;;;17.80;88.80;;;;;;5114409;28;20458;-69
2022/10/13 12:05:57;;;;;;;10.37;6.80;;;18.00;88.90;;;;;;5115394;28;20810;-69
2022/10/13 12:08:27;;;;;;;6.90;5.97;;;18.00;88.40;;;;;;5114678;28;20447;-72
2022/10/13 12:10:57;;;;;;;12.30;6.93;;;18.10;89.00;;;;;;5131590;28;20463;-72
2022/10/13 12:13:27;;;;;;;8.60;7.17;;;18.20;88.20;;;;;;5129413;28;20481;-71
2022/10/13 12:16:01;;;;;;;9.30;7.40;;;18.30;88.30;;;;;;5126311;28;20432;-70
2022/10/13 12:18:32;;;;;;;8.67;6.30;;;18.50;88.40;;;;;;5113708;28;20427;-69
2022/10/13 12:21:02;;;;;;;12.87;7.70;;;18.50;88.10;;;;;;5118215;28;20495;-70
2022/10/13 12:23:30;;;;;;;10.23;8.20;;;18.70;87.70;;;;;;5116796;28;20504;-71
2022/10/13 12:25:57;;;;;;;12.13;7.77;;;18.90;88.00;;;;;;5122114;28;20447;-71
2022/10/13 12:28:29;;;;;;;10.93;7.17;;;19.20;87.00;;;;;;5121340;28;21004;-71
2022/10/13 12:30:58;;;;;;;9.83;7.10;;;19.60;86.10;;;;;;5119908;28;20467;-72
2022/10/13 12:33:28;;;;;;;12.23;6.70;;;20.20;84.60;;;;;;5114588;28;20447;-71
2022/10/13 12:35:55;;;;;;;8.60;6.10;;;21.00;79.40;;;;;;5117015;28;20446;-75
2022/10/13 12:38:23;;;;;;;8.07;5.60;;;21.60;74.00;;;;;;5115170;28;20793;-71
2022/10/13 12:40:52;;;;;;;8.33;6.07;;;21.90;71.40;;;;;;5111025;28;20479;-70
2022/10/13 12:43:22;;;;;;;12.33;6.00;;;22.00;70.70;;;;;;5110816;28;20451;-71
2022/10/13 12:45:50;;;;;;;11.47;6.03;;;22.00;69.60;;;;;;5111414;28;20436;-70
2022/10/13 12:48:34;;;;;;;6.40;5.07;;;21.90;68.80;;;;;;5110813;28;20946;-71
2022/10/13 12:51:13;;;;;;;10.23;5.47;;;21.80;69.00;;;;;;5110690;28;20473;-71
2022/10/13 12:53:40;;;;;;;6.90;5.37;;;21.70;68.30;;;;;;5096323;28;20863;-72